地図

経路データ

SID SEASON NUMBER BASIN SUBBASIN NAME ISO_TIME NATURE LAT LON WMO_WIND WMO_PRES WMO_AGENCY TRACK_TYPE DIST2LAND LANDFALL IFLAG USA_AGENCY USA_ATCF_ID USA_LAT USA_LON USA_RECORD USA_STATUS USA_WIND USA_PRES USA_SSHS USA_R34_NE USA_R34_SE USA_R34_SW USA_R34_NW USA_R50_NE USA_R50_SE USA_R50_SW USA_R50_NW USA_R64_NE USA_R64_SE USA_R64_SW USA_R64_NW USA_POCI USA_ROCI USA_RMW USA_EYE TOKYO_LAT TOKYO_LON TOKYO_GRADE TOKYO_WIND TOKYO_PRES TOKYO_R50_DIR TOKYO_R50_LONG TOKYO_R50_SHORT TOKYO_R30_DIR TOKYO_R30_LONG TOKYO_R30_SHORT TOKYO_LAND CMA_LAT CMA_LON CMA_CAT CMA_WIND CMA_PRES HKO_LAT HKO_LON HKO_CAT HKO_WIND HKO_PRES NEWDELHI_LAT NEWDELHI_LON NEWDELHI_GRADE NEWDELHI_WIND NEWDELHI_PRES NEWDELHI_CI NEWDELHI_DP NEWDELHI_POCI REUNION_LAT REUNION_LON REUNION_TYPE REUNION_WIND REUNION_PRES REUNION_TNUM REUNION_CI REUNION_RMW REUNION_R34_NE REUNION_R34_SE REUNION_R34_SW REUNION_R34_NW REUNION_R50_NE REUNION_R50_SE REUNION_R50_SW REUNION_R50_NW REUNION_R64_NE REUNION_R64_SE REUNION_R64_SW REUNION_R64_NW BOM_LAT BOM_LON BOM_TYPE BOM_WIND BOM_PRES BOM_TNUM BOM_CI BOM_RMW BOM_R34_NE BOM_R34_SE BOM_R34_SW BOM_R34_NW BOM_R50_NE BOM_R50_SE BOM_R50_SW BOM_R50_NW BOM_R64_NE BOM_R64_SE BOM_R64_SW BOM_R64_NW BOM_ROCI BOM_POCI BOM_EYE BOM_POS_METHOD BOM_PRES_METHOD NADI_LAT NADI_LON NADI_CAT NADI_WIND NADI_PRES WELLINGTON_LAT WELLINGTON_LON WELLINGTON_WIND WELLINGTON_PRES DS824_LAT DS824_LON DS824_STAGE DS824_WIND DS824_PRES TD9636_LAT TD9636_LON TD9636_STAGE TD9636_WIND TD9636_PRES TD9635_LAT TD9635_LON TD9635_WIND TD9635_PRES TD9635_ROCI NEUMANN_LAT NEUMANN_LON NEUMANN_CLASS NEUMANN_WIND NEUMANN_PRES MLC_LAT MLC_LON MLC_CLASS MLC_WIND MLC_PRES USA_GUST BOM_GUST BOM_GUST_PER REUNION_GUST REUNION_GUST_PER USA_SEAHGT USA_SEARAD_NE USA_SEARAD_SE USA_SEARAD_SW USA_SEARAD_NW STORM_SPEED STORM_DIR
1950040S12065 1950 10 SI MM NOT_NAMED 1950-02-09 06:00:00 NR -12.1000 64.9000 reunion main 1180 1159 _____O________ -1 -12.1000 64.9000 99 9.90000 6 270
1950040S12065 1950 10 SI MM NOT_NAMED 1950-02-09 09:00:00 NR -12.1025 64.6110 main 1159 1139 _____P________ -1 -12.1025 64.6110 99 6 270
1950040S12065 1950 10 SI MM NOT_NAMED 1950-02-09 12:00:00 NR -12.1045 64.3210 main 1139 1119 _____P________ -1 -12.1045 64.3210 99 6 270
1950040S12065 1950 10 SI MM NOT_NAMED 1950-02-09 15:00:00 NR -12.1059 64.0288 main 1119 1100 _____P________ -1 -12.1059 64.0288 99 6 270
1950040S12065 1950 10 SI MM NOT_NAMED 1950-02-09 18:00:00 NR -12.1067 63.7335 main 1100 1088 _____P________ -1 -12.1067 63.7335 99 6 270
1950040S12065 1950 10 SI MM NOT_NAMED 1950-02-09 21:00:00 NR -12.1067 63.4339 main 1082 1064 _____P________ -1 -12.1067 63.4339 99 6 270
1950040S12065 1950 10 SI MM NOT_NAMED 1950-02-10 00:00:00 NR -12.1056 63.1292 main 1064 1047 _____P________ -1 -12.1056 63.1292 99 6 270
1950040S12065 1950 10 SI MM NOT_NAMED 1950-02-10 03:00:00 NR -12.1035 62.8183 main 1047 1047 _____P________ -1 -12.1035 62.8183 99 5 296
1950040S12065 1950 10 SI MM NOT_NAMED 1950-02-10 06:00:00 TS -11.8857 62.6714 reunion main 1061 1055 O____O___OO___ jtwc_sh SH111950 -11.6000 62.9000 -1 -12.1000 62.5000 99 9.90000 -11.6000 62.9000 TC 25 -11.6000 62.9000 7 6 303
1950040S12065 1950 10 SI MM NOT_NAMED 1950-02-10 09:00:00 TS -11.7996 62.3389 main 1050 1036 P____P___PP___ SH111950 -11.6001 62.4625 -1 -12.0955 62.1729 99 -11.6001 62.4625 TC 25 -11.6069 62.4236 7 7 280
1950040S12065 1950 10 SI MM NOT_NAMED 1950-02-10 12:00:00 TS -11.7538 61.9367 main 1031 1024 O____P___OP___ jtwc_sh SH111950 -11.6000 62.0000 -1 -12.0917 61.8334 99 -11.6000 62.0000 TC 25 -11.6108 61.9477 7 8 275
1950040S12065 1950 10 SI MM NOT_NAMED 1950-02-10 15:00:00 TS -11.7250 61.4876 main 1024 1007 P____P___PP___ SH111950 -11.6000 61.5000 -1 -12.0907 61.4772 99 -11.6000 61.5000 TC 30 -11.6092 61.4730 7 9 272
1950040S12065 1950 10 SI MM NOT_NAMED 1950-02-10 18:00:00 TS -11.7236 61.0251 main 1004 989 O____P___OO___ jtwc_sh SH111950 -11.6000 61.0000 -1 -12.0946 61.1003 99 -11.6000 61.0000 TC 35 -11.6000 61.0000 2 9 270
1950040S12065 1950 10 SI MM NOT_NAMED 1950-02-10 21:00:00 TS -11.7221 60.5852 main 989 977 P____P___PP___ SH111950 -11.5998 60.5575 -1 -12.1054 60.6985 99 -11.5998 60.5575 TC 35 -11.5833 60.5272 2 9 270
1950040S12065 1950 10 SI MM NOT_NAMED 1950-02-11 00:00:00 TS -11.7236 60.1280 main 974 964 O____P___OP___ jtwc_sh SH111950 -11.6000 60.1000 -1 -12.1253 60.2673 99 -11.6000 60.1000 TC 35 -11.5693 60.0445 2 9 270
1950040S12065 1950 10 SI MM NOT_NAMED 1950-02-11 03:00:00 TS -11.7279 59.6218 main 961 951 P____P___PP___ SH111950 -11.5924 59.5724 -1 -12.1561 59.8026 99 -11.5924 59.5724 TC 35 -11.5707 59.5396 2 10 269
1950040S12065 1950 10 SI MM NOT_NAMED 1950-02-11 06:00:00 TS -11.7500 59.0750 reunion main 951 932 O____O___OO___ jtwc_sh SH111950 -11.6000 59.0000 -1 -12.2000 59.3000 99 9.90000 -11.6000 59.0000 TC 35 -11.6000 59.0000 2 11 267
1950040S12065 1950 10 SI MM NOT_NAMED 1950-02-11 09:00:00 TS -11.7952 58.4918 main 932 872 P____P___PP___ SH111950 -11.6274 58.4149 -1 -12.2590 58.7265 99 -11.6274 58.4149 TC 35 -11.6671 58.4110 2 12 264
1950040S12065 1950 10 SI MM NOT_NAMED 1950-02-11 12:00:00 TS -11.8732 57.8743 main 872 806 O____P___OP___ jtwc_sh SH111950 -11.7000 57.8000 -1 -12.3303 58.1096 99 -11.7000 57.8000 TC 35 -11.7624 57.7876 2 13 261
1950040S12065 1950 10 SI MM NOT_NAMED 1950-02-11 15:00:00 TS -11.9895 57.2306 main 795 730 P____P___PP___ SH111950 -11.8349 57.1575 -1 -12.4118 57.4618 99 -11.8349 57.1575 TC 35 -11.8764 57.1453 2 13 259
1950040S12065 1950 10 SI MM NOT_NAMED 1950-02-11 18:00:00 TS -12.1253 56.5739 main 730 661 O____P___OO___ jtwc_sh SH111950 -12.0000 56.5000 -1 -12.5012 56.7958 99 -12.0000 56.5000 TC 35 -12.0000 56.5000 2 13 258
1950040S12065 1950 10 SI MM NOT_NAMED 1950-02-11 21:00:00 TS -12.2583 55.9149 main 650 584 P____P___PP___ SH111950 -12.1574 55.8425 -1 -12.5965 56.1239 99 -12.1574 55.8425 TC 35 -12.1218 55.8507 2 13 258
1950040S12065 1950 10 SI MM NOT_NAMED 1950-02-12 00:00:00 TS -12.3865 55.2660 main 584 519 O____P___OP___ jtwc_sh SH111950 -12.3000 55.2000 -1 -12.6959 55.4590 99 -12.3000 55.2000 TC 35 -12.2500 55.2052 2 13 259
1950040S12065 1950 10 SI MM NOT_NAMED 1950-02-12 03:00:00 TS -12.4977 54.6376 main 508 453 P____P___PP___ SH111950 -12.4074 54.5774 -1 -12.7976 54.8134 99 -12.4074 54.5774 TC 35 -12.3781 54.5820 2 12 260
1950040S12065 1950 10 SI MM NOT_NAMED 1950-02-12 06:00:00 TS -12.6000 54.0500 reunion main 453 397 O____O___OO___ jtwc_sh SH111950 -12.5000 54.0000 -1 -12.9000 54.2000 99 9.90000 -12.5000 54.0000 TC 35 -12.5000 54.0000 2 11 259
1950040S12065 1950 10 SI MM NOT_NAMED 1950-02-12 09:00:00 TS -12.6994 53.5285 main 387 342 P____P___PP___ SH111950 -12.5999 53.4775 -1 -12.9913 53.6776 99 -12.5999 53.4775 TC 35 -12.6065 53.4817 2 10 259
1950040S12065 1950 10 SI MM NOT_NAMED 1950-02-12 12:00:00 TS -12.7979 53.0473 main 331 287 O____P___OP___ jtwc_sh SH111950 -12.7000 53.0000 -1 -13.0850 53.1843 99 -12.7000 53.0000 TC 35 -12.7066 53.0047 2 9 258
1950040S12065 1950 10 SI MM NOT_NAMED 1950-02-12 15:00:00 TS -12.8961 52.5869 main 287 242 P____P___PP___ SH111950 -12.7999 52.5425 -1 -13.1812 52.7124 99 -12.7999 52.5425 TC 35 -12.8035 52.5504 2 9 257
1950040S12065 1950 10 SI MM NOT_NAMED 1950-02-12 18:00:00 TS -12.9950 52.1385 main 231 187 O____P___OO___ jtwc_sh SH111950 -12.9000 52.1000 -1 -13.2800 52.2540 99 -12.9000 52.1000 TC 35 -12.9000 52.1000 2 9 257
1950040S12065 1950 10 SI MM NOT_NAMED 1950-02-12 21:00:00 TS -13.0941 51.6883 main 187 142 P____P___PP___ SH111950 -12.9999 51.6575 -1 -13.3813 51.8013 99 -12.9999 51.6575 TC 35 -12.9955 51.6370 2 9 257
1950040S12065 1950 10 SI MM NOT_NAMED 1950-02-13 00:00:00 TS -13.1943 51.2297 main 131 87 O____P___OP___ jtwc_sh SH111950 -13.1000 51.2000 -1 -13.4852 51.3466 99 -13.1000 51.2000 TC 35 -13.0919 51.1722 2 9 258
1950040S12065 1950 10 SI MM NOT_NAMED 1950-02-13 03:00:00 TS -13.2959 50.7521 main 87 32 P____P___PP___ SH111950 -13.1999 50.7150 -1 -13.5914 50.8821 99 -13.1999 50.7150 TC 35 -13.1923 50.6963 2 10 258
1950040S12065 1950 10 SI MM NOT_NAMED 1950-02-13 06:00:00 TS -13.4000 50.2500 reunion main 32 0 O____O___OO___ jtwc_sh SH111950 -13.3000 50.2000 -1 -13.7000 50.4000 99 9.90000 -13.3000 50.2000 TC 35 -13.3000 50.2000 2 10 258
1950040S12065 1950 10 SI MM NOT_NAMED 1950-02-13 09:00:00 TS -13.5027 49.7077 main 0 0 P____P___PP___ SH111950 -13.3924 49.6574 -1 -13.8042 49.8566 99 -13.3924 49.6574 TC 35 -13.4219 49.6595 2 11 259
1950040S12065 1950 10 SI MM NOT_NAMED 1950-02-13 12:00:00 TS -13.6150 49.1492 main 0 0 O____P___OP___ jtwc_sh SH111950 -13.5000 49.1000 -1 -13.9101 49.2967 99 -13.5000 49.1000 TC 35 -13.5501 49.1001 2 11 257
1950040S12065 1950 10 SI MM NOT_NAMED 1950-02-13 15:00:00 TS -13.7490 48.5879 main 0 0 P____P___PP___ SH111950 -13.6499 48.5425 -1 -14.0180 48.7258 99 -13.6499 48.5425 TC 35 -13.6782 48.5407 2 11 256
1950040S12065 1950 10 SI MM NOT_NAMED 1950-02-13 18:00:00 TS -13.8821 48.0374 main 0 0 O____P___OO___ jtwc_sh SH111950 -13.8000 48.0000 -1 -14.1282 48.1495 99 -13.8000 48.0000 TC 35 -13.8000 48.0000 2 11 257
1950040S12065 1950 10 SI MM NOT_NAMED 1950-02-13 21:00:00 TS -13.9937 47.5106 main 44 44 P____P___PP___ SH111950 -13.9074 47.4849 -1 -14.2411 47.5732 99 -13.9074 47.4849 TC 35 -13.9189 47.4994 2 10 258
1950040S12065 1950 10 SI MM NOT_NAMED 1950-02-14 00:00:00 TS -14.0966 47.0056 main 82 82 O____P___OP___ jtwc_sh SH111950 -14.0000 47.0000 -1 -14.3570 47.0026 99 -14.0000 47.0000 TC 35 -14.0294 47.0200 2 10 258
1950040S12065 1950 10 SI MM NOT_NAMED 1950-02-14 03:00:00 TS -14.2041 46.5209 main 116 116 P____P___PP___ SH111950 -14.1074 46.5425 -1 -14.4765 46.4430 99 -14.1074 46.5425 TC 35 -14.1252 46.5557 2 9 258
1950040S12065 1950 10 SI MM NOT_NAMED 1950-02-14 06:00:00 TS -14.3000 46.0500 reunion main 134 134 O____O___OO___ jtwc_sh SH111950 -14.2000 46.1000 -1 -14.6000 45.9000 99 9.90000 -14.2000 46.1000 TC 35 -14.2000 46.1000 2 9 260
1950040S12065 1950 10 SI MM NOT_NAMED 1950-02-14 09:00:00 TS -14.3694 45.5899 main 155 155 P____P___PP___ SH111950 -14.2649 45.6500 -1 -14.7340 45.4095 99 -14.2649 45.6500 TC 35 -14.2136 45.6502 2 9 262
1950040S12065 1950 10 SI MM NOT_NAMED 1950-02-14 12:00:00 TS -14.4213 45.1356 main 176 173 O____P___OP___ jtwc_sh SH111950 -14.3000 45.2000 -1 -14.8735 44.9358 99 -14.3000 45.2000 TC 35 -14.2119 45.2064 2 9 264
1950040S12065 1950 10 SI MM NOT_NAMED 1950-02-14 15:00:00 TS -14.4538 44.6867 main 173 173 P____P___PP___ SH111950 -14.2849 44.7573 -1 -15.0163 44.4729 99 -14.2849 44.7573 TC 35 -14.2292 44.7594 2 9 264
1950040S12065 1950 10 SI MM NOT_NAMED 1950-02-14 18:00:00 TS -14.5150 44.2286 main 193 193 O____P___OO___ jtwc_sh SH111950 -14.3000 44.3000 -1 -15.1602 44.0144 99 -14.3000 44.3000 TC 35 -14.3000 44.3000 2 9 258
1950040S12065 1950 10 SI MM NOT_NAMED 1950-02-14 21:00:00 TS -14.6405 43.7474 main 204 193 P____P___PP___ SH111950 -14.4049 43.8074 -1 -15.3029 43.5541 99 -14.4049 43.8074 TC 35 -14.4491 43.8208 2 10 249
1950040S12065 1950 10 SI MM NOT_NAMED 1950-02-15 00:00:00 TS -14.8738 43.2397 main 202 201 O____P___OP___ jtwc_sh SH111950 -14.6000 43.3000 -1 -15.4420 43.0858 99 -14.6000 43.3000 TC 35 -14.6636 43.3243 2 11 242
1950040S12065 1950 10 SI MM NOT_NAMED 1950-02-15 03:00:00 TS -15.1654 42.7235 main 205 160 P____P___PP___ SH111950 -14.8777 42.7978 -1 -15.5752 42.6031 99 -14.8777 42.7978 TC 35 -14.9213 42.8156 2 12 239
1950040S12065 1950 10 SI MM NOT_NAMED 1950-02-15 06:00:00 TS -15.4857 42.1857 reunion main 160 106 O____O___OO___ jtwc_sh SH111950 -15.2000 42.3000 -1 -15.7000 42.1000 99 9.90000 -15.2000 42.3000 TC 35 -15.2000 42.3000 2 14 241
1950040S12065 1950 10 SI MM NOT_NAMED 1950-02-15 09:00:00 NR -15.8175 41.4917 main 106 58 _____P________ SH111950 -1 -15.8175 41.4917 99 TC 2 14 251
1950040S12065 1950 10 SI MM NOT_NAMED 1950-02-15 12:00:00 NR -15.9278 40.8567 main 58 10 _____P________ -1 -15.9278 40.8567 99 2 13 260
1950040S12065 1950 10 SI MM NOT_NAMED 1950-02-15 15:00:00 NR -16.0299 40.2111 main 10 0 _____P________ -1 -16.0299 40.2111 99 2 13 261
1950040S12065 1950 10 SI MM NOT_NAMED 1950-02-15 18:00:00 NR -16.1231 39.5713 main 0 0 _____P________ -1 -16.1231 39.5713 99 12 262
1950040S12065 1950 10 SI MM NOT_NAMED 1950-02-15 21:00:00 NR -16.2070 38.9538 main 0 0 _____P________ -1 -16.2070 38.9538 99 12 262
1950040S12065 1950 10 SI MM NOT_NAMED 1950-02-16 00:00:00 NR -16.2812 38.3751 main 0 0 _____P________ -1 -16.2812 38.3751 99 11 263
1950040S12065 1950 10 SI MM NOT_NAMED 1950-02-16 03:00:00 NR -16.3455 37.8517 main 0 0 _____P________ -1 -16.3455 37.8517 99 9 263
1950040S12065 1950 10 SI MM NOT_NAMED 1950-02-16 06:00:00 NR -16.4000 37.4000 reunion main 0 0 _____O________ -1 -16.4000 37.4000 99 9.90000 8 263
1950040S12065 1950 10 SI MM NOT_NAMED 1950-02-16 09:00:00 NR -16.4449 37.0320 main 0 0 _____P________ -1 -16.4449 37.0320 99 6 263
1950040S12065 1950 10 SI MM NOT_NAMED 1950-02-16 12:00:00 NR -16.4816 36.7411 main 0 0 _____P________ -1 -16.4816 36.7411 99 5 262
1950040S12065 1950 10 SI MM NOT_NAMED 1950-02-16 15:00:00 NR -16.5114 36.5165 main 0 0 _____P________ -1 -16.5114 36.5165 99 4 262
1950040S12065 1950 10 SI MM NOT_NAMED 1950-02-16 18:00:00 NR -16.5356 36.3470 main 0 0 _____P________ -1 -16.5356 36.3470 99 3 261
1950040S12065 1950 10 SI MM NOT_NAMED 1950-02-16 21:00:00 NR -16.5555 36.2216 main 0 0 _____P________ -1 -16.5555 36.2216 99 2 260
1950040S12065 1950 10 SI MM NOT_NAMED 1950-02-17 00:00:00 NR -16.5721 36.1294 main 0 0 _____P________ -1 -16.5721 36.1294 99 2 259
1950040S12065 1950 10 SI MM NOT_NAMED 1950-02-17 03:00:00 NR -16.5866 36.0592 main 0 0 _____P________ -1 -16.5866 36.0592 99 1 257
1950040S12065 1950 10 SI MM NOT_NAMED 1950-02-17 06:00:00 NR -16.6000 36.0000 reunion main 0 _____O________ -1 -16.6000 36.0000 99 9.90000 1 256

IBTrACS Databaseについて

本データベースは、米国NOAAが公開する1842年以降の世界の熱帯低気圧のベストトラックデータアーカイブInternational Best Track Archive for Climate Stewardship (IBTrACS)を、ウェブで閲覧しやすい形式に変換したものです。

最終更新日:2021-10-08